Time;durP1;ratioP1;P1;durP2;ratioP2;P2;SDS_P1;SDS_P2;PMS_P1;PMS_P2;Temp;Humidity;BMP_temperature;BMP_pressure;BME280_temperature;BME280_humidity;BME280_pressure;Samples;Min_cycle;Max_cycle;Signal;HPM_P1;HPM_P2
2022/11/23 00:01:20;;;;;;;6.53;3.55;;;;;;;6.23;88.41;98624.16;4953723;28;20046;-81
2022/11/23 00:03:49;;;;;;;7.22;4.10;;;;;;;6.18;88.74;98618.47;4976179;28;20125;-82
2022/11/23 00:06:17;;;;;;;6.35;3.80;;;;;;;6.20;88.60;98623.59;4938271;28;20058;-82
2022/11/23 00:08:44;;;;;;;6.07;3.55;;;;;;;6.17;88.33;98615.97;4952942;28;20070;-81
2022/11/23 00:11:11;;;;;;;8.85;3.50;;;;;;;6.13;88.17;98619.84;4975338;28;20515;-82
2022/11/23 00:13:39;;;;;;;6.60;3.38;;;;;;;6.11;87.97;98620.00;4973990;28;20054;-82
2022/11/23 00:16:12;;;;;;;10.00;3.15;;;;;;;6.04;87.43;98626.78;4939599;28;20092;-82
2022/11/23 00:18:39;;;;;;;4.43;2.45;;;;;;;5.99;87.88;98621.06;4970314;28;20043;-81
2022/11/23 00:21:07;;;;;;;3.22;2.50;;;;;;;6.03;87.68;98628.59;4969518;28;20054;-82
2022/11/23 00:23:35;;;;;;;5.20;2.70;;;;;;;5.97;87.48;98620.38;4983954;28;20100;-81
2022/11/23 00:26:03;;;;;;;3.65;2.17;;;;;;;6.00;87.71;98615.66;4952505;28;20073;-81
2022/11/23 00:28:29;;;;;;;5.93;2.10;;;;;;;6.00;88.44;98620.09;4960520;28;20062;-82
2022/11/23 00:30:56;;;;;;;4.88;3.08;;;;;;;6.04;88.29;98619.69;4940442;28;20046;-81
2022/11/23 00:33:23;;;;;;;3.28;2.60;;;;;;;6.01;88.20;98622.59;4933602;28;20070;-81
2022/11/23 00:36:05;;;;;;;5.32;3.00;;;;;;;5.92;87.37;98620.75;4966039;28;20054;-81
2022/11/23 00:38:32;;;;;;;5.88;2.65;;;;;;;5.97;87.73;98629.09;4936782;28;20053;-81
2022/11/23 00:41:04;;;;;;;6.35;3.10;;;;;;;5.90;87.64;98627.13;4968592;28;20097;-82
2022/11/23 00:43:32;;;;;;;8.05;4.30;;;;;;;5.91;87.66;98628.81;4951174;28;20112;-81
2022/11/23 00:46:14;;;;;;;6.53;3.47;;;;;;;5.86;87.13;98626.56;4958176;28;20860;-82
2022/11/23 00:48:45;;;;;;;8.15;3.45;;;;;;;5.80;86.86;98630.59;4954629;28;20054;-82
2022/11/23 00:51:15;;;;;;;5.65;3.42;;;;;;;5.75;86.93;98629.31;4964509;28;20058;-81
2022/11/23 00:53:42;;;;;;;5.20;2.85;;;;;;;5.80;87.26;98627.94;4947195;28;20043;-82
2022/11/23 00:56:10;;;;;;;6.03;3.13;;;;;;;5.81;87.71;98634.88;4950448;28;20065;-82
2022/11/23 00:58:37;;;;;;;7.57;4.32;;;;;;;5.80;87.79;98638.50;4957983;28;20042;-81
2022/11/23 01:01:12;;;;;;;6.50;3.10;;;;;;;5.83;87.28;98638.22;4964170;28;20137;-82
2022/11/23 01:03:42;;;;;;;9.48;3.75;;;;;;;5.87;87.43;98633.50;4989900;28;20042;-81
2022/11/23 01:06:10;;;;;;;4.72;3.00;;;;;;;5.86;87.96;98634.47;4953464;28;20118;-81
2022/11/23 01:08:37;;;;;;;6.20;3.00;;;;;;;5.83;88.25;98635.56;4953130;28;20047;-81
2022/11/23 01:11:10;;;;;;;6.72;3.28;;;;;;;5.84;88.19;98639.88;4959835;28;20050;-82
2022/11/23 01:13:38;;;;;;;8.50;4.45;;;;;;;5.76;88.56;98636.25;4981041;28;20058;-81
2022/11/23 01:16:17;;;;;;;3.58;3.05;;;;;;;5.73;87.94;98631.25;4985775;28;20054;-82
2022/11/23 01:18:58;;;;;;;7.25;3.00;;;;;;;5.75;88.20;98637.19;4929768;28;20134;-81
2022/11/23 01:21:26;;;;;;;5.43;3.15;;;;;;;5.78;88.34;98629.06;4915961;28;20098;-80
2022/11/23 01:23:53;;;;;;;4.65;3.33;;;;;;;5.76;88.20;98625.72;4955250;28;20081;-81
2022/11/23 01:26:20;;;;;;;7.63;3.45;;;;;;;5.78;88.10;98621.97;4987704;28;20054;-81
2022/11/23 01:28:47;;;;;;;7.93;3.50;;;;;;;5.78;88.04;98621.16;4942260;28;20413;-81
2022/11/23 01:31:17;;;;;;;3.75;2.72;;;;;;;5.79;87.50;98625.44;4978376;28;20058;-81
2022/11/23 01:33:44;;;;;;;6.03;3.60;;;;;;;5.74;87.57;98632.91;4968505;28;20046;-81
2022/11/23 01:36:16;;;;;;;4.85;2.67;;;;;;;5.71;86.96;98631.38;4972136;28;20051;-81
2022/11/23 01:38:44;;;;;;;3.87;2.30;;;;;;;5.67;87.25;98637.88;4971124;28;20548;-81
2022/11/23 01:41:18;;;;;;;8.35;3.83;;;;;;;5.65;87.08;98630.13;4946804;28;20100;-81
2022/11/23 01:43:45;;;;;;;6.47;2.97;;;;;;;5.74;86.99;98630.28;4937577;28;20054;-81
2022/11/23 01:46:12;;;;;;;9.02;3.63;;;;;;;5.73;87.15;98636.53;4947316;28;20050;-81
2022/11/23 01:48:39;;;;;;;13.48;3.25;;;;;;;5.71;87.24;98643.72;4979462;28;20046;-82
2022/11/23 01:51:13;;;;;;;6.72;3.50;;;;;;;5.70;86.34;98639.41;4966434;28;20109;-81
2022/11/23 01:53:40;;;;;;;;;;;;;;;5.52;86.95;98652.38;4949038;28;20038;-82
2022/11/23 01:56:09;;;;;;;10.30;3.60;;;;;;;5.68;86.81;98655.34;4949472;28;19922;-81
2022/11/23 01:58:41;;;;;;;5.40;3.33;;;;;;;5.71;87.21;98657.72;4908817;28;20042;-82
2022/11/23 02:01:08;;;;;;;8.35;3.65;;;;;;;5.71;87.67;98656.91;4973529;28;20501;-81
2022/11/23 02:03:36;;;;;;;6.10;2.88;;;;;;;5.70;87.91;98657.84;4975066;28;20050;-81
2022/11/23 02:06:12;;;;;;;5.73;3.20;;;;;;;5.69;87.71;98664.09;4959686;28;20121;-81
2022/11/23 02:08:40;;;;;;;8.23;3.87;;;;;;;5.67;88.34;98664.22;4965417;28;20445;-81
2022/11/23 02:11:07;;;;;;;6.57;3.55;;;;;;;5.65;88.20;98671.44;4955888;28;20491;-81
2022/11/23 02:13:34;;;;;;;4.80;3.58;;;;;;;5.62;88.05;98675.16;4971610;28;20053;-81
2022/11/23 02:16:01;;;;;;;6.57;2.95;;;;;;;5.55;87.59;98675.84;4961995;28;20105;-82
2022/11/23 02:18:30;;;;;;;4.90;2.85;;;;;;;5.57;87.38;98677.38;4959271;28;20073;-81
2022/11/23 02:21:00;;;;;;;5.13;3.08;;;;;;;5.55;87.03;98676.66;4978728;28;20183;-81
2022/11/23 02:23:33;;;;;;;10.55;3.45;;;;;;;5.57;86.76;98673.88;4953999;28;20643;-81
2022/11/23 02:26:05;;;;;;;9.88;4.10;;;;;;;5.57;87.30;98668.59;4976215;28;20046;-81
2022/11/23 02:28:41;;;;;;;6.00;3.40;;;;;;;5.57;87.40;98668.59;4985640;28;20078;-85
2022/11/23 02:31:08;;;;;;;10.95;4.28;;;;;;;5.58;88.27;98675.56;4990305;28;20138;-82
2022/11/23 02:33:38;;;;;;;5.60;3.45;;;;;;;5.64;87.58;98678.47;4965798;28;20049;-81
2022/11/23 02:36:39;;;;;;;4.75;3.55;;;;;;;5.57;87.11;98674.72;4949807;28;20474;-81
2022/11/23 02:39:10;;;;;;;8.55;4.43;;;;;;;5.57;87.50;98669.47;4972671;28;20104;-81
2022/11/23 02:41:41;;;;;;;8.57;3.63;;;;;;;5.65;87.68;98663.53;4962543;28;20043;-82
2022/11/23 02:44:34;;;;;;;5.88;3.30;;;;;;;5.60;87.21;98669.19;4971583;28;21037;-81
2022/11/23 02:47:00;;;;;;;5.82;3.05;;;;;;;5.62;87.63;98664.63;4947561;28;20410;-82
2022/11/23 02:49:27;;;;;;;3.42;2.80;;;;;;;5.65;88.13;98663.53;4959530;28;20049;-81
2022/11/23 02:51:54;;;;;;;5.75;3.10;;;;;;;5.68;87.74;98659.81;4971543;28;20506;-81
2022/11/23 02:54:24;;;;;;;5.80;3.08;;;;;;;5.67;87.85;98656.31;4987644;28;20134;-81
2022/11/23 02:56:52;;;;;;;7.82;4.07;;;;;;;5.65;87.72;98659.09;4962827;28;20141;-81
2022/11/23 02:59:18;;;;;;;6.93;3.30;;;;;;;5.64;87.76;98660.03;4969172;28;20504;-81
2022/11/23 03:01:46;;;;;;;4.95;3.47;;;;;;;5.66;87.53;98662.56;4968884;28;20050;-81
2022/11/23 03:04:13;;;;;;;6.00;3.55;;;;;;;5.65;87.89;98663.53;4956680;28;20066;-81
2022/11/23 03:06:40;;;;;;;5.57;3.40;;;;;;;5.65;88.02;98659.09;4986186;28;20374;-81
2022/11/23 03:09:07;;;;;;;7.32;3.28;;;;;;;5.64;87.99;98659.22;4969794;28;20551;-81
2022/11/23 03:11:34;;;;;;;3.95;3.03;;;;;;;5.64;88.04;98664.47;4960086;28;20046;-81
2022/11/23 03:14:01;;;;;;;6.35;3.15;;;;;;;5.62;87.67;98661.13;4953836;28;20050;-81
2022/11/23 03:16:33;;;;;;;8.30;4.10;;;;;;;5.56;88.06;98654.63;4958714;28;20065;-81
2022/11/23 03:19:00;;;;;;;6.75;3.50;;;;;;;5.51;88.33;98658.63;4951525;28;20437;-82
2022/11/23 03:21:27;;;;;;;4.57;3.42;;;;;;;5.58;88.13;98660.59;4953545;28;20047;-81
2022/11/23 03:23:54;;;;;;;7.22;3.42;;;;;;;5.54;88.50;98663.63;4957044;28;20101;-81
2022/11/23 03:26:21;;;;;;;7.95;3.90;;;;;;;5.58;88.05;98659.75;4944865;28;20050;-81
2022/11/23 03:28:57;;;;;;;6.78;3.40;;;;;;;5.60;87.97;98660.47;4961537;28;20520;-81
2022/11/23 03:31:27;;;;;;;8.25;3.33;;;;;;;5.61;88.24;98659.50;5001435;28;20409;-81
2022/11/23 03:33:54;;;;;;;4.28;3.08;;;;;;;5.58;88.06;98668.50;4952598;28;20049;-81
2022/11/23 03:36:23;;;;;;;4.90;2.80;;;;;;;5.53;88.06;98659.31;4967978;28;20453;-81
2022/11/23 03:38:50;;;;;;;3.92;3.00;;;;;;;5.51;87.83;98662.06;4958402;28;20470;-81
2022/11/23 03:41:32;;;;;;;5.18;3.30;;;;;;;5.44;87.90;98661.78;4959896;28;20054;-81
2022/11/23 03:43:59;;;;;;;5.82;3.17;;;;;;;5.47;87.76;98660.69;4941057;28;20405;-81
2022/11/23 03:46:26;;;;;;;3.42;2.90;;;;;;;5.48;87.69;98658.88;4949143;28;20058;-81
2022/11/23 03:48:52;;;;;;;5.95;3.30;;;;;;;5.45;88.17;98657.34;4976964;28;20061;-82
2022/11/23 03:51:19;;;;;;;6.47;3.00;;;;;;;5.41;88.12;98659.41;4967012;28;20121;-81
2022/11/23 03:53:46;;;;;;;4.72;3.08;;;;;;;5.46;88.18;98650.28;4953576;28;20064;-81
2022/11/23 03:56:13;;;;;;;3.35;2.83;;;;;;;5.38;87.93;98646.50;4986295;28;20053;-81
2022/11/23 03:58:43;;;;;;;7.38;2.90;;;;;;;5.44;87.83;98651.25;4962832;28;20064;-81
2022/11/23 04:01:12;;;;;;;6.13;2.17;;;;;;;5.47;88.04;98646.66;4968941;28;20140;-81
2022/11/23 04:03:42;;;;;;;4.03;2.65;;;;;;;5.47;88.13;98647.53;4954939;28;20039;-81
2022/11/23 04:06:14;;;;;;;6.93;3.28;;;;;;;5.42;87.96;98647.91;4961784;28;20057;-81
2022/11/23 04:09:11;;;;;;;3.72;2.60;;;;;;;5.47;88.10;98654.56;4911072;28;20402;-81
2022/11/23 04:11:51;;;;;;;4.72;2.60;;;;;;;5.45;88.09;98654.72;4963986;28;20078;-81
2022/11/23 04:14:18;;;;;;;3.67;2.55;;;;;;;5.46;87.97;98656.38;4970266;28;20052;-82
2022/11/23 04:16:45;;;;;;;4.30;2.88;;;;;;;5.47;88.17;98659.84;4955565;28;20046;-81
2022/11/23 04:19:12;;;;;;;8.90;3.28;;;;;;;5.46;88.29;98659.00;4959275;28;20068;-81
2022/11/23 04:21:38;;;;;;;4.35;3.00;;;;;;;5.46;88.37;98655.56;4964820;28;20073;-81
2022/11/23 04:24:07;;;;;;;6.88;2.97;;;;;;;5.46;88.79;98666.91;4965985;28;20583;-85
2022/11/23 04:26:35;;;;;;;6.50;3.72;;;;;;;5.42;88.73;98655.81;4936677;28;20129;-82
2022/11/23 04:29:02;;;;;;;8.27;3.33;;;;;;;5.41;88.76;98653.31;4926344;28;20406;-82
2022/11/23 04:31:31;;;;;;;7.50;2.97;;;;;;;5.47;88.31;98657.19;4953384;28;20103;-82
2022/11/23 04:34:17;;;;;;;5.25;3.20;;;;;;;5.38;88.67;98654.41;4961512;28;20148;-82
2022/11/23 04:36:44;;;;;;;3.72;2.88;;;;;;;5.41;88.66;98653.31;4950815;28;20047;-81
2022/11/23 04:39:12;;;;;;;6.55;2.85;;;;;;;5.38;88.64;98646.50;4935817;28;20054;-81
2022/11/23 04:41:59;;;;;;;4.18;3.30;;;;;;;5.36;88.69;98647.59;4911537;28;20062;-82
2022/11/23 04:44:26;;;;;;;6.53;4.45;;;;;;;5.35;88.77;98646.78;4961424;28;20777;-81
2022/11/23 04:46:59;;;;;;;;;;;;;;;5.14;89.29;98645.97;4954423;28;20050;-81
2022/11/23 04:49:26;;;;;;;6.55;3.80;;;;;;;5.30;89.20;98642.88;4943452;28;20413;-81
2022/11/23 04:51:53;;;;;;;8.80;3.60;;;;;;;5.29;89.26;98646.47;4936620;28;20046;-81
2022/11/23 04:54:26;;;;;;;8.10;3.22;;;;;;;5.35;89.63;98648.59;4934320;28;20081;-82
2022/11/23 04:56:57;;;;;;;6.03;3.45;;;;;;;5.36;89.57;98651.06;4956568;28;20057;-83
2022/11/23 04:59:24;;;;;;;5.70;3.58;;;;;;;5.42;89.70;98645.28;4965507;28;20104;-83
2022/11/23 05:01:51;;;;;;;4.80;3.00;;;;;;;5.49;89.32;98656.09;4957506;28;20498;-83
2022/11/23 05:04:37;;;;;;;6.28;3.00;;;;;;;5.47;89.44;98649.31;4937563;28;20038;-83
2022/11/23 05:07:04;;;;;;;5.07;3.35;;;;;;;5.41;89.97;98643.59;4945735;28;20129;-83
2022/11/23 05:09:33;;;;;;;8.73;3.63;;;;;;;5.44;89.92;98653.91;4957743;28;20078;-83
2022/11/23 05:12:16;;;;;;;5.22;3.40;;;;;;;5.41;89.59;98650.69;4979415;28;20046;-83
2022/11/23 05:14:43;;;;;;;5.28;3.00;;;;;;;5.44;89.43;98650.41;4971319;28;20524;-84
2022/11/23 05:17:14;;;;;;;7.25;3.20;;;;;;;5.47;88.94;98658.06;4958664;28;20098;-83
2022/11/23 05:19:41;;;;;;;6.28;3.65;;;;;;;5.46;89.40;98647.66;4964793;28;20049;-82
2022/11/23 05:22:08;;;;;;;5.07;3.45;;;;;;;5.49;89.00;98653.47;4948017;28;20042;-83
2022/11/23 05:24:38;;;;;;;6.68;3.80;;;;;;;5.48;89.17;98653.63;4932943;28;20494;-81
2022/11/23 05:27:12;;;;;;;7.80;3.80;;;;;;;5.51;89.69;98653.34;4959573;28;20514;-81
2022/11/23 05:29:39;;;;;;;6.13;3.03;;;;;;;5.53;89.58;98657.53;4971995;28;20050;-81
2022/11/23 05:32:06;;;;;;;6.80;3.15;;;;;;;5.50;89.16;98652.53;4971261;28;20042;-81
2022/11/23 05:34:33;;;;;;;5.63;2.90;;;;;;;5.48;89.56;98651.00;4942131;28;20053;-81
2022/11/23 05:37:02;;;;;;;7.57;2.72;;;;;;;5.48;90.00;98651.00;4971749;28;20054;-80
2022/11/23 05:39:29;;;;;;;7.28;3.40;;;;;;;5.48;89.71;98648.34;4968312;28;20042;-81
2022/11/23 05:41:58;;;;;;;7.63;3.20;;;;;;;5.51;89.72;98645.44;4967345;28;20381;-82
2022/11/23 05:44:40;;;;;;;6.68;3.40;;;;;;;5.51;89.52;98648.09;4983910;28;20125;-81
2022/11/23 05:47:14;;;;;;;4.68;3.13;;;;;;;5.51;89.42;98651.53;4951638;28;20042;-80
2022/11/23 05:49:41;;;;;;;4.47;3.25;;;;;;;5.50;89.54;98651.69;4951875;28;20042;-80
2022/11/23 05:52:08;;;;;;;7.03;2.72;;;;;;;5.51;89.01;98653.34;4956182;28;20052;-80
2022/11/23 05:54:37;;;;;;;4.32;3.03;;;;;;;5.52;88.79;98655.00;4937088;28;20448;-81
2022/11/23 05:57:10;;;;;;;6.63;3.10;;;;;;;5.51;89.08;98650.72;4938795;28;20134;-81
2022/11/23 05:59:39;;;;;;;6.25;3.30;;;;;;;5.51;89.56;98651.53;4951088;28;20655;-80
2022/11/23 06:02:08;;;;;;;5.72;3.42;;;;;;;5.49;89.75;98640.31;4963368;28;20486;-81
2022/11/23 06:04:35;;;;;;;6.68;3.50;;;;;;;5.51;89.52;98654.19;4953550;28;20493;-81
2022/11/23 06:07:05;;;;;;;8.18;4.55;;;;;;;5.44;89.92;98653.03;4967379;28;20053;-81
2022/11/23 06:09:49;;;;;;;7.35;4.60;;;;;;;5.40;90.01;98649.03;4944782;28;20114;-79
2022/11/23 06:12:16;;;;;;;9.43;4.45;;;;;;;5.40;89.81;98644.59;4953370;28;20056;-80
2022/11/23 06:14:43;;;;;;;8.75;4.55;;;;;;;5.39;90.06;98648.19;4971591;28;20516;-80
2022/11/23 06:17:13;;;;;;;10.88;4.85;;;;;;;5.39;89.83;98656.09;4971059;28;20653;-80
2022/11/23 06:19:46;;;;;;;12.68;5.50;;;;;;;5.37;89.84;98660.66;4975012;28;20417;-80
2022/11/23 06:22:14;;;;;;;7.40;3.90;;;;;;;5.40;89.97;98656.91;4960505;28;20437;-80
2022/11/23 06:24:48;;;;;;;8.50;3.83;;;;;;;5.40;89.62;98657.75;4971947;28;20050;-80
2022/11/23 06:27:30;;;;;;;11.45;4.72;;;;;;;5.40;89.89;98657.75;4952117;28;20448;-79
2022/11/23 06:29:59;;;;;;;11.75;4.28;;;;;;;5.42;89.90;98663.72;4956362;28;20042;-80
2022/11/23 06:32:28;;;;;;;7.15;4.32;;;;;;;5.42;89.72;98663.72;4970786;28;20458;-79
2022/11/23 06:34:54;;;;;;;6.45;4.28;;;;;;;5.41;89.81;98659.41;4989243;28;20056;-80
2022/11/23 06:37:28;;;;;;;7.20;4.05;;;;;;;5.43;90.03;98656.66;4969748;28;20066;-79
2022/11/23 06:39:55;;;;;;;6.82;4.10;;;;;;;5.42;90.04;98666.34;4986267;28;20066;-80
2022/11/23 06:42:22;;;;;;;6.63;3.28;;;;;;;5.45;89.91;98654.72;4967081;28;20047;-80
2022/11/23 06:45:07;;;;;;;6.82;3.83;;;;;;;5.41;89.91;98659.41;4970833;28;20434;-80
2022/11/23 06:47:35;;;;;;;9.45;4.13;;;;;;;5.40;89.81;98662.19;4950754;28;20093;-79
2022/11/23 06:50:04;;;;;;;6.75;3.53;;;;;;;5.35;89.98;98667.00;4972132;28;20526;-80
2022/11/23 06:52:31;;;;;;;7.15;3.70;;;;;;;5.36;90.00;98666.84;4963064;28;20105;-79
2022/11/23 06:54:57;;;;;;;5.70;3.60;;;;;;;5.34;90.22;98668.81;4968214;28;20049;-80
2022/11/23 06:57:24;;;;;;;8.75;3.22;;;;;;;5.36;90.12;98666.84;4968053;28;20046;-79
2022/11/23 06:59:52;;;;;;;8.02;3.95;;;;;;;5.37;89.98;98675.63;4979237;28;20124;-80
2022/11/23 07:02:25;;;;;;;10.07;3.92;;;;;;;5.36;90.10;98682.66;4949176;28;20598;-79
2022/11/23 07:04:54;;;;;;;6.82;3.80;;;;;;;5.37;90.11;98678.25;4969603;28;20057;-79
2022/11/23 07:07:21;;;;;;;9.30;4.03;;;;;;;5.41;89.92;98680.47;4984884;28;20417;-80
2022/11/23 07:09:56;;;;;;;8.95;3.63;;;;;;;5.39;90.01;98677.16;4978159;28;20516;-79
2022/11/23 07:12:33;;;;;;;9.10;3.78;;;;;;;5.39;90.28;98677.16;4984365;28;20512;-80
2022/11/23 07:15:00;;;;;;;9.30;4.50;;;;;;;5.39;90.02;98678.94;4959340;28;20820;-81
2022/11/23 07:17:37;;;;;;;10.25;4.63;;;;;;;5.34;89.93;98678.47;4953881;28;20158;-80
2022/11/23 07:20:05;;;;;;;6.80;4.03;;;;;;;5.38;89.96;98685.16;4985563;28;20053;-80
2022/11/23 07:22:32;;;;;;;9.90;4.72;;;;;;;5.39;90.03;98685.06;4969461;28;20050;-80
2022/11/23 07:24:58;;;;;;;8.30;4.20;;;;;;;5.44;90.15;98684.63;4997687;28;20068;-79
2022/11/23 07:27:25;;;;;;;9.68;4.63;;;;;;;5.38;90.76;98679.91;4940479;28;20046;-80
2022/11/23 07:29:53;;;;;;;9.77;4.45;;;;;;;5.45;90.63;98683.69;4970992;28;20116;-80
2022/11/23 07:32:19;;;;;;;11.00;5.28;;;;;;;5.48;90.46;98693.13;4995927;28;20053;-79
2022/11/23 07:34:46;;;;;;;12.90;6.10;;;;;;;5.43;90.96;98690.88;4944606;28;20126;-80
2022/11/23 07:37:14;;;;;;;6.80;4.95;;;;;;;5.44;91.09;98690.75;4948166;28;20425;-79
2022/11/23 07:39:42;;;;;;;8.65;5.80;;;;;;;5.45;91.22;98699.47;4959617;28;20220;-79
2022/11/23 07:42:24;;;;;;;7.07;4.95;;;;;;;5.46;91.72;98697.66;4936011;28;20133;-80
2022/11/23 07:45:08;;;;;;;8.95;4.78;;;;;;;5.48;91.49;98690.47;4971850;28;20082;-80
2022/11/23 07:47:37;;;;;;;8.68;5.38;;;;;;;5.50;91.20;98696.47;4984572;28;20058;-80
2022/11/23 07:50:05;;;;;;;6.78;4.15;;;;;;;5.50;91.05;98692.03;4952103;28;20050;-83
2022/11/23 07:52:34;;;;;;;14.80;7.53;;;;;;;5.45;91.30;98688.94;4973395;28;20568;-79
2022/11/23 07:55:01;;;;;;;21.60;10.05;;;;;;;5.49;91.23;98692.13;4965369;28;20478;-80
2022/11/23 07:57:28;;;;;;;27.75;10.40;;;;;;;5.50;91.45;98696.47;4975042;28;20049;-79
2022/11/23 07:59:54;;;;;;;11.60;6.97;;;;;;;5.55;90.95;98697.72;4978905;28;20096;-80
2022/11/23 08:02:21;;;;;;;22.20;6.20;;;;;;;5.49;91.87;98700.88;4950544;28;20081;-79
2022/11/23 08:04:48;;;;;;;8.40;5.72;;;;;;;5.56;91.39;98704.66;4955041;28;20464;-80
2022/11/23 08:07:15;;;;;;;11.38;6.30;;;;;;;5.56;91.69;98702.00;4970328;28;20046;-79
2022/11/23 08:09:41;;;;;;;15.35;5.43;;;;;;;5.59;91.03;98701.75;4970343;28;20600;-80
2022/11/23 08:12:08;;;;;;;10.00;5.43;;;;;;;5.66;90.57;98702.06;4964845;28;20382;-80
2022/11/23 08:14:35;;;;;;;12.50;6.00;;;;;;;5.66;91.14;98704.69;4995297;28;20042;-80
2022/11/23 08:17:02;;;;;;;12.68;5.90;;;;;;;5.69;90.51;98709.69;4956938;28;20155;-80
2022/11/23 08:19:28;;;;;;;12.02;6.35;;;;;;;5.69;90.62;98711.50;4956427;28;20046;-81
2022/11/23 08:21:55;;;;;;;10.55;5.75;;;;;;;5.69;91.00;98706.22;4983533;28;20628;-79
2022/11/23 08:24:22;;;;;;;11.23;5.20;;;;;;;5.73;90.11;98707.66;4949343;28;20478;-80
2022/11/23 08:26:48;;;;;;;16.20;6.35;;;;;;;5.75;89.98;98709.19;4951480;28;20053;-79
2022/11/23 08:29:15;;;;;;;10.93;5.85;;;;;;;5.77;90.29;98717.75;4958544;28;20038;-80
2022/11/23 08:31:42;;;;;;;11.95;5.43;;;;;;;5.79;90.08;98710.56;4968725;28;20140;-81
2022/11/23 08:34:09;;;;;;;22.90;9.77;;;;;;;5.81;89.86;98708.63;4961406;28;20070;-80
2022/11/23 08:36:36;;;;;;;13.38;5.85;;;;;;;5.80;89.89;98716.66;4969146;28;20045;-81
2022/11/23 08:39:03;;;;;;;9.85;5.63;;;;;;;5.77;89.97;98709.84;4964964;28;20054;-81
2022/11/23 08:41:29;;;;;;;12.68;5.82;;;;;;;5.81;89.88;98711.28;4985277;28;20411;-81
2022/11/23 08:43:56;;;;;;;12.10;5.13;;;;;;;5.85;89.86;98709.19;4962131;28;20128;-81
2022/11/23 08:46:23;;;;;;;10.02;5.65;;;;;;;5.86;90.35;98710.88;4982919;28;20050;-80
2022/11/23 08:48:50;;;;;;;10.07;5.30;;;;;;;5.84;90.11;98707.53;4966022;28;20046;-81
2022/11/23 08:51:21;;;;;;;9.02;5.53;;;;;;;5.83;89.99;98711.97;4954808;28;20402;-81
2022/11/23 08:53:49;;;;;;;14.88;5.72;;;;;;;5.85;90.35;98717.94;4971389;28;20645;-81
2022/11/23 08:56:16;;;;;;;14.88;6.72;;;;;;;5.87;90.36;98710.72;4954746;28;20049;-81
2022/11/23 08:58:42;;;;;;;10.82;5.32;;;;;;;5.91;90.70;98715.75;4968045;28;20445;-81
2022/11/23 09:01:10;;;;;;;8.40;5.40;;;;;;;5.91;90.26;98713.13;4989466;28;20101;-81
2022/11/23 09:03:38;;;;;;;13.48;5.57;;;;;;;5.93;90.60;98711.16;4972172;28;20048;-81
2022/11/23 09:06:04;;;;;;;12.48;5.70;;;;;;;5.92;90.87;98717.41;4964332;28;20378;-82
2022/11/23 09:08:32;;;;;;;12.57;6.07;;;;;;;5.97;90.55;98708.16;4954788;28;20051;-81
2022/11/23 09:11:09;;;;;;;12.88;6.18;;;;;;;5.95;90.63;98706.63;4953723;28;20057;-81
2022/11/23 09:13:37;;;;;;;15.18;6.68;;;;;;;6.03;90.75;98717.31;4965720;28;20047;-81
2022/11/23 09:16:04;;;;;;;11.20;6.13;;;;;;;6.06;90.66;98717.06;4937121;28;20058;-81
2022/11/23 09:18:32;;;;;;;9.27;5.55;;;;;;;6.09;90.41;98714.16;4980810;28;20054;-81
2022/11/23 09:21:03;;;;;;;15.50;6.97;;;;;;;6.11;90.83;98722.78;4973141;28;20069;-81
2022/11/23 09:23:31;;;;;;;12.15;6.22;;;;;;;6.12;90.33;98711.25;4999131;28;20053;-81
2022/11/23 09:25:58;;;;;;;8.63;6.20;;;;;;;6.18;90.53;98712.50;4959320;28;20050;-81
2022/11/23 09:28:27;;;;;;;12.52;6.20;;;;;;;6.17;90.62;98722.22;4959487;28;20047;-81
2022/11/23 09:30:55;;;;;;;11.82;6.28;;;;;;;6.20;90.91;98714.03;4978911;28;20093;-80
2022/11/23 09:33:22;;;;;;;10.18;6.63;;;;;;;6.21;91.21;98713.09;4965567;28;20454;-81
2022/11/23 09:35:59;;;;;;;16.17;6.93;;;;;;;6.24;90.99;98711.97;4969111;28;20054;-81
2022/11/23 09:38:26;;;;;;;11.02;6.90;;;;;;;6.28;90.68;98706.31;4949522;28;20203;-81
2022/11/23 09:41:28;;;;;;;13.23;6.28;;;;;;;6.29;90.76;98707.97;4993361;28;20132;-80
2022/11/23 09:44:02;;;;;;;8.85;6.32;;;;;;;6.35;90.70;98697.84;4968278;28;20496;-80
2022/11/23 09:46:53;;;;;;;14.20;7.25;;;;;;;6.33;91.17;98707.69;4988397;28;20129;-81
2022/11/23 09:49:21;;;;;;;12.05;6.72;;;;;;;6.40;91.17;98706.19;4958291;28;20050;-81
2022/11/23 09:51:49;;;;;;;13.20;6.47;;;;;;;6.46;90.87;98706.47;4972156;28;20070;-81
2022/11/23 09:54:30;;;;;;;11.70;6.32;;;;;;;6.47;91.02;98700.22;4995020;28;20045;-81
2022/11/23 09:56:57;;;;;;;12.65;6.25;;;;;;;6.55;91.08;98702.16;4952210;28;20081;-81
2022/11/23 09:59:31;;;;;;;12.32;6.72;;;;;;;6.60;91.08;98696.47;4975968;28;20469;-81
2022/11/23 10:01:59;;;;;;;9.20;5.20;;;;;;;6.67;90.73;98701.06;4981335;28;20501;-81
2022/11/23 10:04:30;;;;;;;10.35;5.78;;;;;;;6.74;90.72;98694.25;4970672;28;20180;-81
2022/11/23 10:07:18;;;;;;;12.68;5.68;;;;;;;6.79;90.24;98696.47;4966101;28;20046;-81
2022/11/23 10:10:12;;;;;;;10.40;4.53;;;;;;;6.81;89.87;98686.59;4984984;28;20043;-81
2022/11/23 10:13:03;;;;;;;13.73;5.13;;;;;;;6.81;89.30;98691.06;4964992;28;20054;-81
2022/11/23 10:15:59;;;;;;;12.15;5.38;;;;;;;6.83;89.21;98691.75;4940373;28;20057;-81
2022/11/23 10:18:48;;;;;;;10.23;4.35;;;;;;;6.87;89.14;98678.16;4941303;28;20054;-81
2022/11/23 10:21:21;;;;;;;6.78;4.68;;;;;;;6.98;89.24;98676.31;4984863;28;20038;-81
2022/11/23 10:24:00;;;;;;;14.52;5.10;;;;;;;6.98;89.23;98676.31;4970780;28;20058;-81
2022/11/23 10:26:31;;;;;;;6.70;3.97;;;;;;;7.03;89.26;98671.47;4964048;28;20042;-81
2022/11/23 10:29:09;;;;;;;8.52;3.50;;;;;;;7.05;88.85;98672.97;4984169;28;20053;-81
2022/11/23 10:31:36;;;;;;;9.90;4.40;;;;;;;7.10;89.12;98662.81;4961955;28;20457;-81
2022/11/23 10:34:33;;;;;;;7.95;3.22;;;;;;;7.07;88.46;98663.13;4944006;28;20378;-81
2022/11/23 10:37:00;;;;;;;8.55;3.22;;;;;;;7.16;88.61;98669.34;4926868;28;20066;-81
2022/11/23 10:39:27;;;;;;;7.72;2.92;;;;;;;7.20;88.75;98660.16;4976292;28;20050;-81
2022/11/23 10:41:59;;;;;;;12.25;3.88;;;;;;;7.22;88.66;98667.94;4951094;28;20042;-81
2022/11/23 10:44:31;;;;;;;5.82;2.75;;;;;;;7.26;88.71;98671.97;4977656;28;20066;-81
2022/11/23 10:46:59;;;;;;;8.23;3.43;;;;;;;7.30;88.68;98668.91;4967963;28;20072;-81
2022/11/23 10:49:28;;;;;;;12.65;3.22;;;;;;;7.35;88.47;98666.66;4957849;28;20126;-81
2022/11/23 10:51:57;;;;;;;7.80;2.75;;;;;;;7.38;88.62;98654.97;4965774;28;20047;-81
2022/11/23 10:54:53;;;;;;;12.18;3.13;;;;;;;7.34;87.66;98656.22;4986729;28;20046;-81
2022/11/23 10:57:33;;;;;;;7.25;3.40;;;;;;;7.46;88.20;98656.88;4921418;28;20051;-82
2022/11/23 11:00:08;;;;;;;8.75;3.58;;;;;;;7.48;88.35;98652.28;4932718;28;20047;-82
2022/11/23 11:02:46;;;;;;;9.48;3.45;;;;;;;7.48;87.94;98653.13;4966676;28;20042;-81
2022/11/23 11:05:26;;;;;;;11.02;3.13;;;;;;;7.54;87.89;98652.53;4948635;28;20450;-81
2022/11/23 11:08:16;;;;;;;8.50;2.95;;;;;;;7.56;87.83;98647.94;4966099;28;20100;-81
2022/11/23 11:10:48;;;;;;;9.27;3.33;;;;;;;7.61;87.74;98652.78;4942477;28;20042;-82
2022/11/23 11:13:39;;;;;;;11.48;3.10;;;;;;;7.62;87.75;98646.53;4953497;28;20047;-82
2022/11/23 11:16:17;;;;;;;7.78;3.05;;;;;;;7.65;87.47;98645.41;4959110;28;20050;-81
2022/11/23 11:18:43;;;;;;;9.45;2.20;;;;;;;7.74;87.84;98634.78;4979316;28;20062;-81
2022/11/23 11:21:32;;;;;;;6.18;2.47;;;;;;;7.75;87.31;98630.31;4942319;28;20383;-81
2022/11/23 11:24:04;;;;;;;9.35;2.20;;;;;;;7.81;87.36;98629.72;4968136;28;20066;-81
2022/11/23 11:26:32;;;;;;;8.70;2.30;;;;;;;7.87;87.42;98613.28;4977990;28;20082;-81
2022/11/23 11:29:01;;;;;;;10.52;2.53;;;;;;;7.91;87.34;98614.66;4979119;28;20046;-81
2022/11/23 11:31:46;;;;;;;12.05;2.63;;;;;;;7.92;86.64;98615.50;4976967;28;20678;-81
2022/11/23 11:34:46;;;;;;;4.43;1.73;;;;;;;7.92;86.42;98618.13;4965037;28;20057;-81
2022/11/23 11:37:32;;;;;;;7.05;1.90;;;;;;;7.97;86.03;98608.78;4934630;28;20049;-82
2022/11/23 11:40:08;;;;;;;11.15;2.03;;;;;;;8.02;85.77;98609.16;4938410;28;20046;-81
2022/11/23 11:42:44;;;;;;;11.43;2.80;;;;;;;8.08;85.18;98606.91;4984637;28;20486;-83
2022/11/23 11:45:19;;;;;;;6.20;2.00;;;;;;;8.14;85.31;98603.63;4973254;28;20116;-81
2022/11/23 11:47:52;;;;;;;8.43;2.30;;;;;;;8.19;85.23;98596.09;4959367;28;20137;-82
2022/11/23 11:50:25;;;;;;;6.32;2.08;;;;;;;8.21;85.25;98597.59;4942267;28;20118;-81
2022/11/23 11:53:02;;;;;;;15.20;2.22;;;;;;;8.25;85.09;98592.84;4951486;28;20042;-82
2022/11/23 11:55:40;;;;;;;4.53;2.05;;;;;;;8.29;84.93;98594.19;4967831;28;20045;-81
2022/11/23 11:58:10;;;;;;;10.30;2.30;;;;;;;8.29;84.91;98596.00;4925226;28;20401;-81